WetterOnline ( https://www.wetteronline.de )

Wetter aktuell Weidhausen

Aktuelles Wetter: Coburg (323m)

6-stündlich | Neueste Meldungen
Ortszeit Temperatur Wetter
So, 17.10. 20:00 8.1° C bedeckt
So, 17.10. 14:00 8.8° C bedeckt
So, 17.10. 8:00 4.0° C bedeckt
So, 17.10. 2:00 1.2° C wolkig
Sa, 16.10. 20:00 5.5° C wolkenlos
Sa, 16.10. 14:00 9.9° C wolkenlos
Sa, 16.10. 8:00 -0.4° C leicht bewölkt
Sa, 16.10. 2:00 3.0° C wolkenlos
Ortszeit Temperatur Wetter
So, 17.10. 22:00 7.5° C bedeckt
So, 17.10. 21:50 7.5° C bedeckt
So, 17.10. 21:40 7.5° C bedeckt
So, 17.10. 21:30 7.7° C bedeckt
So, 17.10. 21:20 7.7° C bedeckt
So, 17.10. 21:10 7.7° C bedeckt
So, 17.10. 21:00 8.1° C bedeckt
So, 17.10. 20:30 8.3° C bedeckt
So, 17.10. 20:00 8.1° C bedeckt
So, 17.10. 19:30 8.5° C bedeckt
So, 17.10. 19:00 8.6° C bedeckt
Ortszeit Relative Feuchte Sichtweite
So, 17.10. 20:00 87% 50 km
So, 17.10. 14:00 73% 55 km
So, 17.10. 8:00 96% 35 km
So, 17.10. 2:00 98% 13 km
Sa, 16.10. 20:00 88% 45 km
Sa, 16.10. 14:00 71% 40 km
Sa, 16.10. 8:00 99% 14 km
Sa, 16.10. 2:00 97% 40 km
Ortszeit Relative Feuchte Sichtweite
So, 17.10. 22:00 90% 40 km
So, 17.10. 21:50 90% -
So, 17.10. 21:40 90% -
So, 17.10. 21:30 90% 40 km
So, 17.10. 21:20 90% -
So, 17.10. 21:10 89% -
So, 17.10. 21:00 85% 45 km
So, 17.10. 20:30 85% 50 km
So, 17.10. 20:00 87% 50 km
So, 17.10. 19:30 85% 50 km
So, 17.10. 19:00 84% 50 km
Ortszeit Niederschlagsmenge Niederschlagsart
So, 17.10. 20:00 0.0 l/m2 in 12 Std. -
So, 17.10. 14:00 0.0 l/m2 in 6 Std. -
So, 17.10. 8:00 0.0 l/m2 in 12 Std. -
So, 17.10. 2:00 0.0 l/m2 in 6 Std. -
Sa, 16.10. 20:00 0.0 l/m2 in 12 Std. -
Sa, 16.10. 14:00 0.0 l/m2 in 6 Std. -
Sa, 16.10. 8:00 0.0 l/m2 in 12 Std. -
Sa, 16.10. 2:00 0.0 l/m2 in 6 Std. -
Ortszeit Niederschlagsmenge Niederschlagsart
So, 17.10. 22:00 0.0 l/m2 in 1 Std. -
So, 17.10. 21:50 keine Meldung -
So, 17.10. 21:40 keine Meldung -
So, 17.10. 21:30 0.0 l/m2 in 1 Std. -
So, 17.10. 21:20 keine Meldung -
So, 17.10. 21:10 keine Meldung -
So, 17.10. 21:00 0.0 l/m2 in 1 Std. -
So, 17.10. 20:30 0.0 l/m2 in 1 Std. -
So, 17.10. 20:00 0.0 l/m2 in 1 Std. -
So, 17.10. 19:30 0.0 l/m2 in 1 Std. -
So, 17.10. 19:00 0.0 l/m2 in 1 Std. -
Ortszeit Stärke Spitze Richtung
km/h Bft. km/h Grad Sektor
So, 17.10. 20:00 9 2 15 20° N
So, 17.10. 14:00 7 2 14 120° SO
So, 17.10. 8:00 6 1 19 70° O
So, 17.10. 2:00 0 0 18 - -
Sa, 16.10. 20:00 14 3 14 20° N
Sa, 16.10. 14:00 6 1 11 260° W
Sa, 16.10. 8:00 2 1 11 290° W
Sa, 16.10. 2:00 4 1 18 30° NO
Ortszeit Stärke Spitze Richtung
km/h Bft. km/h Grad Sektor
So, 17.10. 22:00 11 2 11 30° NO
So, 17.10. 21:50 11 2 - 30° NO
So, 17.10. 21:40 9 2 - 40° NO
So, 17.10. 21:30 9 2 11 40° NO
So, 17.10. 21:20 9 2 - 40° NO
So, 17.10. 21:10 7 2 - 60° NO
So, 17.10. 21:00 7 2 11 50° NO
So, 17.10. 20:30 7 2 11 40° NO
So, 17.10. 20:00 9 2 13 20° N
So, 17.10. 19:30 9 2 13 60° NO
So, 17.10. 19:00 13 3 15 20° N
Ortszeit Untergrenze Bedeckung Gattung
total tief tief mittel hoch
So, 17.10. 20:00 1500 m 8/8 8/8 - - -
So, 17.10. 14:00 1470 m 8/8 8/8 - - -
So, 17.10. 8:00 1290 m 8/8 8/8 - - -
So, 17.10. 2:00 7500 m 8/8 0/8 - - -
Sa, 16.10. 20:00 - 0/8 0/8 - - -
Sa, 16.10. 14:00 - 0/8 0/8 - - -
Sa, 16.10. 8:00 <30 m 4/8 0/8 - - -
Sa, 16.10. 2:00 - 0/8 0/8 - - -
Ortszeit Bedeckungsgrad in Achtel und Wolkenuntergrenze
So, 17.10. 22:00 8(1500m)
So, 17.10. 21:50 8(1500m)
So, 17.10. 21:40 8(1500m)
So, 17.10. 21:30 8(1500m)
So, 17.10. 21:20 8(1500m)
So, 17.10. 21:10 8(1500m)
So, 17.10. 21:00 8(1500m)
So, 17.10. 20:30 8(1500m)
So, 17.10. 20:00 8(1500m)
So, 17.10. 19:30 8(1500m)
So, 17.10. 19:00 8(1500m)
Ortszeit Luftdruck NN (hPa) Tendenz (hPa in 3 Std.)
So, 17.10. 20:00 1022 + 0,7
So, 17.10. 14:00 1022 - 0,2
So, 17.10. 8:00 1022 + 0,1
So, 17.10. 2:00 1023 - 0,1
Sa, 16.10. 20:00 1023 + 0,4
Sa, 16.10. 14:00 1023 - 0,8
Sa, 16.10. 8:00 1024 + 0,7
Sa, 16.10. 2:00 1023 + 0,6
Ortszeit Luftdruck NN (hPa) Tendenz (hPa in 3 Std.)
So, 17.10. 22:00 1023 + 0,9
So, 17.10. 21:50 1023 keine Meldung
So, 17.10. 21:40 1023 keine Meldung
So, 17.10. 21:30 1023 + 0,9
So, 17.10. 21:20 1023 keine Meldung
So, 17.10. 21:10 1023 keine Meldung
So, 17.10. 21:00 1022 + 0,8
So, 17.10. 20:30 1022 + 0,7
So, 17.10. 20:00 1022 + 0,7
So, 17.10. 19:30 1022 + 0,5
So, 17.10. 19:00 1022 + 0,4
Ortszeit Schneehöhe (cm)
So, 17.10. 20:00 0
So, 17.10. 14:00 0
So, 17.10. 8:00 0
So, 17.10. 2:00 0
Sa, 16.10. 20:00 0
Sa, 16.10. 14:00 0
Sa, 16.10. 8:00 0
Sa, 16.10. 2:00 0
Ortszeit Schneehöhe (cm)
So, 17.10. 22:00 0
So, 17.10. 21:50 0
So, 17.10. 21:40 0
So, 17.10. 21:30 0
So, 17.10. 21:20 0
So, 17.10. 21:10 0
So, 17.10. 21:00 0
So, 17.10. 20:30 0
So, 17.10. 20:00 0
So, 17.10. 19:30 0
So, 17.10. 19:00 0
Link zu dieser Seite / Seite empfehlen

Das Wetter in ...